DLH4E EDDH-EDDM
Flight info
| Callsign | DLH4E |
|---|---|
| Flight time | 0h 59m |
| Altitude | 35000 |
| Route | AMLUH2G/33 AMLUH M852 DENIX DCT ZUCKA DCT SODRO/N0443F310 T703 LULAR/N0444F300 T105 LANDU LANDU2B |
| Aircraft | A321/M-SDE3FGHIRWY/LB1 |
Departure
| Time | 2026-05-07 18:58 |
|---|---|
| Airport | Hamburg Helmut Schmidt Airport (EDDH) |
Arrival
| Time | 2026-05-07 19:57 |
|---|---|
| Airport | Munich Airport (EDDM) |
| Time | Latitude | Longitude | Altitude | Speed | Heading |
|---|---|---|---|---|---|
| 2026-05-07 18:30 | 53.62809 | 10.00246 | 43 ft | 0 kts | 63° |
| 2026-05-07 18:50 | 53.62798 | 10.00211 | 47 ft | 4 kts | 56° |
| 2026-05-07 18:50 | 53.62790 | 10.00193 | 45 ft | 0 kts | 54° |
| 2026-05-07 18:51 | 53.62790 | 10.00192 | 45 ft | 1 kts | 52° |
| 2026-05-07 18:52 | 53.62780 | 10.00173 | 43 ft | 3 kts | 21° |
| 2026-05-07 18:52 | 53.62746 | 10.00160 | 46 ft | 6 kts | 343° |
| 2026-05-07 18:52 | 53.62738 | 10.00164 | 46 ft | 0 kts | 333° |
| 2026-05-07 18:54 | 53.62753 | 10.00152 | 44 ft | 6 kts | 333° |
| 2026-05-07 18:54 | 53.62810 | 10.00102 | 48 ft | 11 kts | 333° |
| 2026-05-07 18:54 | 53.62857 | 10.00021 | 48 ft | 9 kts | 273° |
| 2026-05-07 18:54 | 53.62848 | 9.99971 | 48 ft | 0 kts | 244° |
| 2026-05-07 18:56 | 53.62834 | 9.99924 | 45 ft | 10 kts | 244° |
| 2026-05-07 18:56 | 53.62811 | 9.99805 | 45 ft | 9 kts | 291° |
| 2026-05-07 18:57 | 53.62835 | 9.99776 | 45 ft | 0 kts | 333° |
| 2026-05-07 18:57 | 53.62937 | 9.99686 | 45 ft | 51 kts | 333° |
| 2026-05-07 18:58 | 53.63491 | 9.99210 | 47 ft | 125 kts | 333° |
| 2026-05-07 18:58 | 53.64433 | 9.98386 | 177 ft | 167 kts | 338° |
| 2026-05-07 18:58 | 53.65426 | 9.97519 | 1032 ft | 162 kts | 337° |
| 2026-05-07 18:58 | 53.66474 | 9.96614 | 1515 ft | 181 kts | 337° |
| 2026-05-07 18:59 | 53.67660 | 9.95607 | 1947 ft | 199 kts | 335° |
| 2026-05-07 18:59 | 53.68997 | 9.94747 | 2459 ft | 211 kts | 353° |
| 2026-05-07 18:59 | 53.70471 | 9.94680 | 3039 ft | 215 kts | 4° |
| 2026-05-07 18:59 | 53.71953 | 9.94743 | 3906 ft | 211 kts | 14° |
| 2026-05-07 19:00 | 53.72855 | 9.95317 | 4368 ft | 208 kts | 35° |
| 2026-05-07 19:00 | 53.74074 | 9.97744 | 5365 ft | 205 kts | 69° |
| 2026-05-07 19:00 | 53.74295 | 10.00114 | 6063 ft | 208 kts | 89° |
| 2026-05-07 19:00 | 53.74236 | 10.02597 | 6682 ft | 215 kts | 97° |
| 2026-05-07 19:01 | 53.73751 | 10.05055 | 7177 ft | 232 kts | 116° |
| 2026-05-07 19:01 | 53.72914 | 10.07553 | 7518 ft | 257 kts | 117° |
| 2026-05-07 19:01 | 53.72004 | 10.10256 | 8045 ft | 270 kts | 118° |
| 2026-05-07 19:01 | 53.71064 | 10.13040 | 8795 ft | 276 kts | 118° |
| 2026-05-07 19:02 | 53.70104 | 10.15887 | 9530 ft | 282 kts | 118° |
| 2026-05-07 19:02 | 53.68963 | 10.18611 | 10198 ft | 289 kts | 133° |
| 2026-05-07 19:02 | 53.67361 | 10.20735 | 10756 ft | 301 kts | 150° |
| 2026-05-07 19:02 | 53.65342 | 10.22053 | 10918 ft | 324 kts | 165° |
| 2026-05-07 19:03 | 53.63093 | 10.23070 | 11049 ft | 346 kts | 165° |
| 2026-05-07 19:03 | 53.60708 | 10.24138 | 11337 ft | 361 kts | 165° |
| 2026-05-07 19:03 | 53.58261 | 10.25239 | 11928 ft | 366 kts | 165° |
| 2026-05-07 19:03 | 53.55811 | 10.26347 | 12587 ft | 369 kts | 165° |
| 2026-05-07 19:04 | 53.53293 | 10.27489 | 13242 ft | 373 kts | 165° |
| 2026-05-07 19:04 | 53.50806 | 10.28624 | 13816 ft | 378 kts | 165° |
| 2026-05-07 19:04 | 53.48257 | 10.29793 | 14388 ft | 381 kts | 165° |
| 2026-05-07 19:04 | 53.45690 | 10.30970 | 14984 ft | 383 kts | 165° |
| 2026-05-07 19:05 | 53.43111 | 10.32145 | 15596 ft | 385 kts | 165° |
| 2026-05-07 19:05 | 53.40480 | 10.33338 | 16206 ft | 387 kts | 166° |
| 2026-05-07 19:05 | 53.37803 | 10.34546 | 16799 ft | 390 kts | 165° |
| 2026-05-07 19:05 | 53.35274 | 10.35688 | 17327 ft | 393 kts | 166° |
| 2026-05-07 19:06 | 53.32629 | 10.36878 | 17892 ft | 395 kts | 166° |
| 2026-05-07 19:06 | 53.27286 | 10.39264 | 18872 ft | 400 kts | 166° |
| 2026-05-07 19:06 | 53.24592 | 10.40470 | 19332 ft | 403 kts | 166° |
| 2026-05-07 19:07 | 53.21879 | 10.41684 | 19791 ft | 405 kts | 166° |
| 2026-05-07 19:07 | 53.19146 | 10.42901 | 20273 ft | 407 kts | 166° |
| 2026-05-07 19:07 | 53.16407 | 10.44120 | 20730 ft | 409 kts | 167° |
| 2026-05-07 19:07 | 53.13655 | 10.45344 | 21211 ft | 411 kts | 167° |
| 2026-05-07 19:08 | 53.10858 | 10.46483 | 21647 ft | 414 kts | 169° |
| 2026-05-07 19:08 | 53.08035 | 10.47446 | 22130 ft | 416 kts | 170° |
| 2026-05-07 19:08 | 53.05176 | 10.48303 | 22577 ft | 418 kts | 172° |
| 2026-05-07 19:08 | 53.02305 | 10.49114 | 23050 ft | 420 kts | 172° |
| 2026-05-07 19:09 | 52.99417 | 10.49930 | 23483 ft | 423 kts | 171° |
| 2026-05-07 19:09 | 52.96514 | 10.50776 | 23867 ft | 425 kts | 171° |
| 2026-05-07 19:09 | 52.93574 | 10.51661 | 24254 ft | 427 kts | 171° |
| 2026-05-07 19:09 | 52.90672 | 10.52558 | 24586 ft | 429 kts | 171° |
| 2026-05-07 19:10 | 52.87726 | 10.53480 | 24945 ft | 432 kts | 170° |
| 2026-05-07 19:10 | 52.84768 | 10.54409 | 25293 ft | 434 kts | 170° |
| 2026-05-07 19:10 | 52.81794 | 10.55335 | 25646 ft | 436 kts | 170° |
| 2026-05-07 19:10 | 52.78799 | 10.56259 | 26018 ft | 438 kts | 171° |
| 2026-05-07 19:11 | 52.75795 | 10.57183 | 26380 ft | 440 kts | 170° |
| 2026-05-07 19:11 | 52.72776 | 10.58108 | 26732 ft | 442 kts | 170° |
| 2026-05-07 19:11 | 52.69744 | 10.59037 | 27079 ft | 444 kts | 171° |
| 2026-05-07 19:11 | 52.66705 | 10.59969 | 27487 ft | 444 kts | 170° |
| 2026-05-07 19:12 | 52.64690 | 10.60587 | 27677 ft | 446 kts | 171° |
| 2026-05-07 19:12 | 52.61636 | 10.61519 | 28024 ft | 447 kts | 171° |
| 2026-05-07 19:12 | 52.58568 | 10.62445 | 28316 ft | 450 kts | 170° |
| 2026-05-07 19:12 | 52.55482 | 10.63373 | 28590 ft | 452 kts | 171° |
| 2026-05-07 19:13 | 52.52388 | 10.64312 | 28947 ft | 451 kts | 170° |
| 2026-05-07 19:13 | 52.49305 | 10.65255 | 29347 ft | 450 kts | 170° |
| 2026-05-07 19:13 | 52.46236 | 10.66193 | 29785 ft | 448 kts | 170° |
| 2026-05-07 19:13 | 52.43171 | 10.67125 | 30181 ft | 447 kts | 170° |
| 2026-05-07 19:14 | 52.40120 | 10.68049 | 30477 ft | 447 kts | 170° |
| 2026-05-07 19:14 | 52.37067 | 10.68968 | 30789 ft | 446 kts | 170° |
| 2026-05-07 19:14 | 52.34016 | 10.69883 | 30998 ft | 448 kts | 170° |
| 2026-05-07 19:14 | 52.30945 | 10.70800 | 31057 ft | 448 kts | 170° |
| 2026-05-07 19:15 | 52.24814 | 10.72633 | 31390 ft | 447 kts | 170° |
| 2026-05-07 19:15 | 52.21755 | 10.73555 | 31716 ft | 446 kts | 171° |
| 2026-05-07 19:15 | 52.18706 | 10.74477 | 32034 ft | 446 kts | 171° |
| 2026-05-07 19:16 | 52.15652 | 10.75398 | 32310 ft | 446 kts | 171° |
| 2026-05-07 19:16 | 52.12597 | 10.76314 | 32588 ft | 446 kts | 171° |
| 2026-05-07 19:16 | 52.09544 | 10.77223 | 32855 ft | 447 kts | 171° |
| 2026-05-07 19:16 | 52.06483 | 10.78127 | 33007 ft | 448 kts | 171° |
| 2026-05-07 19:17 | 52.00357 | 10.79938 | 33043 ft | 447 kts | 171° |
| 2026-05-07 19:17 | 51.97326 | 10.80982 | 33343 ft | 446 kts | 163° |
| 2026-05-07 19:17 | 51.94434 | 10.82840 | 33620 ft | 447 kts | 158° |
| 2026-05-07 19:18 | 51.91577 | 10.84819 | 33894 ft | 447 kts | 158° |
| 2026-05-07 19:18 | 51.88715 | 10.86816 | 34123 ft | 447 kts | 158° |
| 2026-05-07 19:18 | 51.85858 | 10.88816 | 34351 ft | 448 kts | 158° |
| 2026-05-07 19:18 | 51.83006 | 10.90808 | 34592 ft | 447 kts | 158° |
| 2026-05-07 19:19 | 51.80141 | 10.92805 | 34841 ft | 447 kts | 158° |
| 2026-05-07 19:19 | 51.77283 | 10.94793 | 34971 ft | 448 kts | 158° |
| 2026-05-07 19:19 | 51.71558 | 10.98754 | 35007 ft | 447 kts | 158° |
| 2026-05-07 19:20 | 51.65883 | 11.02672 | 35003 ft | 447 kts | 158° |
| 2026-05-07 19:20 | 51.60161 | 11.06610 | 34993 ft | 448 kts | 158° |
| 2026-05-07 19:21 | 51.54437 | 11.10532 | 34996 ft | 448 kts | 158° |
| 2026-05-07 19:21 | 51.48709 | 11.14465 | 34988 ft | 448 kts | 158° |
| 2026-05-07 19:22 | 51.42973 | 11.18406 | 34995 ft | 448 kts | 158° |
| 2026-05-07 19:22 | 51.37233 | 11.22313 | 35008 ft | 448 kts | 158° |
| 2026-05-07 19:23 | 51.31491 | 11.26196 | 34999 ft | 448 kts | 158° |
| 2026-05-07 19:23 | 51.25751 | 11.30081 | 35006 ft | 450 kts | 158° |
| 2026-05-07 19:24 | 51.19978 | 11.33975 | 34997 ft | 448 kts | 158° |
| 2026-05-07 19:24 | 51.14229 | 11.37848 | 34992 ft | 449 kts | 158° |
| 2026-05-07 19:25 | 51.08485 | 11.41704 | 34991 ft | 448 kts | 158° |
| 2026-05-07 19:25 | 51.02731 | 11.45559 | 34987 ft | 448 kts | 159° |
| 2026-05-07 19:26 | 50.96986 | 11.49403 | 34989 ft | 448 kts | 159° |
| 2026-05-07 19:26 | 50.91239 | 11.53241 | 34983 ft | 448 kts | 159° |
| 2026-05-07 19:27 | 50.85498 | 11.57053 | 34978 ft | 448 kts | 159° |
| 2026-05-07 19:27 | 50.79727 | 11.60871 | 34984 ft | 450 kts | 159° |
| 2026-05-07 19:28 | 50.73995 | 11.64661 | 34981 ft | 449 kts | 159° |
| 2026-05-07 19:28 | 50.68198 | 11.68481 | 34975 ft | 448 kts | 159° |
| 2026-05-07 19:29 | 50.62440 | 11.72263 | 34957 ft | 448 kts | 159° |
| 2026-05-07 19:29 | 50.56692 | 11.76040 | 34973 ft | 448 kts | 159° |
| 2026-05-07 19:30 | 50.50939 | 11.79808 | 34965 ft | 448 kts | 159° |
| 2026-05-07 19:30 | 50.45185 | 11.83564 | 34968 ft | 448 kts | 159° |
| 2026-05-07 19:31 | 50.39494 | 11.87393 | 34971 ft | 448 kts | 158° |
| 2026-05-07 19:31 | 50.33743 | 11.91319 | 34969 ft | 448 kts | 158° |
| 2026-05-07 19:32 | 50.28058 | 11.95170 | 34968 ft | 448 kts | 158° |
| 2026-05-07 19:32 | 50.22290 | 11.99058 | 34970 ft | 449 kts | 159° |
| 2026-05-07 19:33 | 50.16593 | 12.02883 | 34957 ft | 448 kts | 159° |
| 2026-05-07 19:33 | 50.10835 | 12.06740 | 34989 ft | 447 kts | 159° |
| 2026-05-07 19:34 | 50.05164 | 12.10541 | 34784 ft | 444 kts | 159° |
| 2026-05-07 19:34 | 50.02287 | 12.12456 | 34147 ft | 443 kts | 160° |
| 2026-05-07 19:34 | 49.99354 | 12.13759 | 33410 ft | 438 kts | 174° |
| 2026-05-07 19:35 | 49.96335 | 12.14345 | 32573 ft | 439 kts | 175° |
| 2026-05-07 19:35 | 49.93294 | 12.14902 | 31730 ft | 441 kts | 175° |
| 2026-05-07 19:35 | 49.90281 | 12.15439 | 30902 ft | 442 kts | 175° |
| 2026-05-07 19:35 | 49.87228 | 12.15972 | 30061 ft | 443 kts | 174° |
| 2026-05-07 19:36 | 49.84159 | 12.16505 | 29049 ft | 444 kts | 174° |
| 2026-05-07 19:36 | 49.81087 | 12.17048 | 27994 ft | 445 kts | 174° |
| 2026-05-07 19:36 | 49.78004 | 12.17600 | 26921 ft | 447 kts | 174° |
| 2026-05-07 19:36 | 49.74912 | 12.18157 | 26059 ft | 445 kts | 174° |
| 2026-05-07 19:37 | 49.71864 | 12.18702 | 25347 ft | 439 kts | 174° |
| 2026-05-07 19:37 | 49.68852 | 12.19230 | 24672 ft | 433 kts | 174° |
| 2026-05-07 19:37 | 49.65870 | 12.19753 | 23994 ft | 428 kts | 174° |
| 2026-05-07 19:37 | 49.62928 | 12.20270 | 23270 ft | 423 kts | 174° |
| 2026-05-07 19:38 | 49.60022 | 12.20780 | 22462 ft | 419 kts | 174° |
| 2026-05-07 19:38 | 49.57147 | 12.21286 | 21750 ft | 411 kts | 174° |
| 2026-05-07 19:38 | 49.54332 | 12.21786 | 21062 ft | 404 kts | 174° |
| 2026-05-07 19:38 | 49.51541 | 12.22282 | 20193 ft | 403 kts | 175° |
| 2026-05-07 19:39 | 49.48760 | 12.22773 | 19408 ft | 401 kts | 175° |
| 2026-05-07 19:39 | 49.46000 | 12.23264 | 18692 ft | 397 kts | 175° |
| 2026-05-07 19:39 | 49.43263 | 12.23750 | 17919 ft | 395 kts | 175° |
| 2026-05-07 19:39 | 49.40545 | 12.24223 | 17128 ft | 392 kts | 175° |
| 2026-05-07 19:40 | 49.37851 | 12.24687 | 16422 ft | 387 kts | 175° |
| 2026-05-07 19:40 | 49.35187 | 12.25144 | 15696 ft | 384 kts | 175° |
| 2026-05-07 19:40 | 49.32539 | 12.25603 | 15008 ft | 380 kts | 175° |
| 2026-05-07 19:40 | 49.29931 | 12.26061 | 14325 ft | 376 kts | 176° |
| 2026-05-07 19:41 | 49.27340 | 12.26519 | 13648 ft | 372 kts | 176° |
| 2026-05-07 19:41 | 49.24780 | 12.26969 | 12885 ft | 369 kts | 176° |
| 2026-05-07 19:41 | 49.22246 | 12.27416 | 12147 ft | 365 kts | 176° |
| 2026-05-07 19:41 | 49.19735 | 12.27852 | 11427 ft | 361 kts | 176° |
| 2026-05-07 19:42 | 49.17252 | 12.28280 | 11076 ft | 360 kts | 176° |
| 2026-05-07 19:42 | 49.14760 | 12.28711 | 10968 ft | 360 kts | 176° |
| 2026-05-07 19:42 | 49.12265 | 12.29143 | 10996 ft | 361 kts | 176° |
| 2026-05-07 19:42 | 49.09770 | 12.29571 | 10999 ft | 361 kts | 176° |
| 2026-05-07 19:43 | 49.07269 | 12.30003 | 10993 ft | 362 kts | 176° |
| 2026-05-07 19:43 | 49.04761 | 12.30438 | 10998 ft | 363 kts | 176° |
| 2026-05-07 19:43 | 49.02249 | 12.30870 | 11005 ft | 364 kts | 176° |
| 2026-05-07 19:43 | 48.99734 | 12.31303 | 11007 ft | 364 kts | 176° |
| 2026-05-07 19:44 | 48.97222 | 12.31737 | 11007 ft | 363 kts | 176° |
| 2026-05-07 19:44 | 48.94712 | 12.32167 | 11008 ft | 363 kts | 176° |
| 2026-05-07 19:44 | 48.92205 | 12.32597 | 11007 ft | 363 kts | 176° |
| 2026-05-07 19:44 | 48.89689 | 12.33028 | 11006 ft | 363 kts | 176° |
| 2026-05-07 19:45 | 48.87179 | 12.33459 | 11004 ft | 363 kts | 176° |
| 2026-05-07 19:45 | 48.84664 | 12.33890 | 10996 ft | 364 kts | 176° |
| 2026-05-07 19:45 | 48.82183 | 12.34315 | 11003 ft | 363 kts | 176° |
| 2026-05-07 19:45 | 48.79670 | 12.34577 | 11004 ft | 361 kts | 184° |
| 2026-05-07 19:46 | 48.77246 | 12.34155 | 11001 ft | 338 kts | 195° |
| 2026-05-07 19:46 | 48.75042 | 12.33311 | 11002 ft | 315 kts | 197° |
| 2026-05-07 19:46 | 48.72989 | 12.32516 | 11003 ft | 295 kts | 197° |
| 2026-05-07 19:46 | 48.71055 | 12.31776 | 11001 ft | 281 kts | 197° |
| 2026-05-07 19:47 | 48.69127 | 12.31161 | 10413 ft | 291 kts | 188° |
| 2026-05-07 19:47 | 48.67091 | 12.31022 | 10062 ft | 288 kts | 185° |
| 2026-05-07 19:47 | 48.65122 | 12.30966 | 9848 ft | 280 kts | 185° |
| 2026-05-07 19:47 | 48.63185 | 12.30921 | 9465 ft | 277 kts | 185° |
| 2026-05-07 19:48 | 48.61263 | 12.30896 | 9068 ft | 276 kts | 185° |
| 2026-05-07 19:48 | 48.59354 | 12.30872 | 8670 ft | 274 kts | 185° |
| 2026-05-07 19:48 | 48.57450 | 12.30847 | 8269 ft | 273 kts | 185° |
| 2026-05-07 19:48 | 48.55560 | 12.30812 | 7900 ft | 270 kts | 185° |
| 2026-05-07 19:49 | 48.53683 | 12.30784 | 7518 ft | 269 kts | 185° |
| 2026-05-07 19:49 | 48.51819 | 12.30750 | 6929 ft | 273 kts | 185° |
| 2026-05-07 19:49 | 48.49928 | 12.30719 | 6309 ft | 271 kts | 185° |
| 2026-05-07 19:49 | 48.48051 | 12.30688 | 5659 ft | 269 kts | 185° |
| 2026-05-07 19:50 | 48.46221 | 12.30339 | 5018 ft | 261 kts | 204° |
| 2026-05-07 19:50 | 48.44748 | 12.28836 | 4381 ft | 259 kts | 230° |
| 2026-05-07 19:50 | 48.43600 | 12.26758 | 3987 ft | 255 kts | 234° |
| 2026-05-07 19:50 | 48.42531 | 12.24685 | 3930 ft | 247 kts | 235° |
| 2026-05-07 19:51 | 48.41497 | 12.22707 | 3927 ft | 232 kts | 234° |
| 2026-05-07 19:51 | 48.40526 | 12.20867 | 3926 ft | 216 kts | 234° |
| 2026-05-07 19:51 | 48.39662 | 12.19074 | 3934 ft | 209 kts | 246° |
| 2026-05-07 19:51 | 48.39281 | 12.17018 | 3942 ft | 205 kts | 264° |
| 2026-05-07 19:52 | 48.39127 | 12.14869 | 3966 ft | 210 kts | 264° |
| 2026-05-07 19:52 | 48.38970 | 12.12685 | 3952 ft | 211 kts | 264° |
| 2026-05-07 19:52 | 48.38811 | 12.10502 | 3946 ft | 208 kts | 264° |
| 2026-05-07 19:52 | 48.38652 | 12.08345 | 3949 ft | 206 kts | 264° |
| 2026-05-07 19:53 | 48.38496 | 12.06224 | 3938 ft | 201 kts | 264° |
| 2026-05-07 19:53 | 48.38348 | 12.04164 | 3930 ft | 196 kts | 265° |
| 2026-05-07 19:53 | 48.38197 | 12.02179 | 3963 ft | 185 kts | 264° |
| 2026-05-07 19:53 | 48.38059 | 12.00321 | 3845 ft | 173 kts | 265° |
| 2026-05-07 19:54 | 48.37929 | 11.98580 | 3639 ft | 163 kts | 264° |
| 2026-05-07 19:54 | 48.37807 | 11.96955 | 3470 ft | 146 kts | 264° |
| 2026-05-07 19:54 | 48.37696 | 11.95517 | 3292 ft | 133 kts | 265° |
| 2026-05-07 19:54 | 48.37594 | 11.94129 | 3095 ft | 135 kts | 266° |
| 2026-05-07 19:55 | 48.37490 | 11.92729 | 2912 ft | 134 kts | 264° |
| 2026-05-07 19:55 | 48.37384 | 11.91335 | 2721 ft | 136 kts | 264° |
| 2026-05-07 19:55 | 48.37278 | 11.89918 | 2564 ft | 137 kts | 264° |
| 2026-05-07 19:55 | 48.37170 | 11.88497 | 2363 ft | 137 kts | 265° |
| 2026-05-07 19:56 | 48.37062 | 11.87085 | 2181 ft | 133 kts | 266° |
| 2026-05-07 19:56 | 48.36957 | 11.85698 | 1971 ft | 140 kts | 264° |
| 2026-05-07 19:56 | 48.36840 | 11.84177 | 1795 ft | 147 kts | 264° |
| 2026-05-07 19:56 | 48.36729 | 11.82698 | 1615 ft | 136 kts | 264° |
| 2026-05-07 19:57 | 48.36627 | 11.81318 | 1483 ft | 124 kts | 264° |
| 2026-05-07 19:57 | 48.36547 | 11.80280 | 1485 ft | 70 kts | 263° |
| 2026-05-07 19:57 | 48.36495 | 11.79826 | 1475 ft | 28 kts | 250° |
| 2026-05-07 19:57 | 48.36400 | 11.79599 | 1479 ft | 24 kts | 233° |
| 2026-05-07 19:58 | 48.36300 | 11.79398 | 1482 ft | 23 kts | 231° |
| 2026-05-07 19:58 | 48.36198 | 11.79299 | 1485 ft | 18 kts | 179° |
| 2026-05-07 19:58 | 48.36070 | 11.79319 | 1473 ft | 19 kts | 173° |
| 2026-05-07 19:58 | 48.35985 | 11.79334 | 1486 ft | 9 kts | 173° |
| 2026-05-07 19:59 | 48.35936 | 11.79344 | 1484 ft | 9 kts | 165° |
| 2026-05-07 19:59 | 48.35905 | 11.79448 | 1475 ft | 14 kts | 94° |
| 2026-05-07 19:59 | 48.35830 | 11.79524 | 1476 ft | 16 kts | 174° |
| 2026-05-07 19:59 | 48.35710 | 11.79546 | 1482 ft | 19 kts | 173° |
| 2026-05-07 20:00 | 48.35616 | 11.79563 | 1475 ft | 21 kts | 173° |
| 2026-05-07 20:00 | 48.35465 | 11.79589 | 1474 ft | 22 kts | 173° |
| 2026-05-07 20:00 | 48.35304 | 11.79617 | 1476 ft | 24 kts | 172° |
| 2026-05-07 20:00 | 48.35173 | 11.79636 | 1483 ft | 13 kts | 184° |
| 2026-05-07 20:01 | 48.35113 | 11.79544 | 1479 ft | 12 kts | 257° |
| 2026-05-07 20:01 | 48.35104 | 11.79432 | 1486 ft | 10 kts | 263° |
| 2026-05-07 20:01 | 48.35099 | 11.79374 | 1486 ft | 2 kts | 263° |
| 2026-05-07 20:01 | 48.35099 | 11.79371 | 1486 ft | 0 kts | 263° |